sensor_id;sensor_type;location;lat;lon;timestamp;pressure;altitude;pressure_sealevel;temperature;humidity
43814;BME280;29669;55.706;37.656;2023-05-15T00:00:11;100759.50;;;9.63;53.44
43814;BME280;29669;55.706;37.656;2023-05-15T00:02:45;100756.78;;;9.64;53.39
43814;BME280;29669;55.706;37.656;2023-05-15T00:05:13;100756.09;;;9.62;53.56
43814;BME280;29669;55.706;37.656;2023-05-15T00:07:42;100761.81;;;9.66;53.54
43814;BME280;29669;55.706;37.656;2023-05-15T00:10:10;100756.22;;;9.61;53.71
43814;BME280;29669;55.706;37.656;2023-05-15T00:12:38;100753.63;;;9.61;53.70
43814;BME280;29669;55.706;37.656;2023-05-15T00:15:07;100747.75;;;9.59;53.81
43814;BME280;29669;55.706;37.656;2023-05-15T00:17:35;100756.22;;;9.61;54.02
43814;BME280;29669;55.706;37.656;2023-05-15T00:20:04;100753.63;;;9.61;54.02
43814;BME280;29669;55.706;37.656;2023-05-15T00:22:34;100756.22;;;9.61;53.89
43814;BME280;29669;55.706;37.656;2023-05-15T00:25:02;100760.72;;;9.59;54.02
43814;BME280;29669;55.706;37.656;2023-05-15T00:27:31;100754.28;;;9.53;54.12
43814;BME280;29669;55.706;37.656;2023-05-15T00:29:59;100757.03;;;9.52;54.27
43814;BME280;29669;55.706;37.656;2023-05-15T00:32:28;100762.06;;;9.53;54.23
43814;BME280;29669;55.706;37.656;2023-05-15T00:34:56;100766.97;;;9.56;54.44
43814;BME280;29669;55.706;37.656;2023-05-15T00:37:24;100757.72;;;9.54;54.69
43814;BME280;29669;55.706;37.656;2023-05-15T00:39:53;100766.72;;;9.59;54.46
43814;BME280;29669;55.706;37.656;2023-05-15T00:42:22;100761.03;;;9.65;54.54
43814;BME280;29669;55.706;37.656;2023-05-15T00:44:51;100767.84;;;9.66;54.47
43814;BME280;29669;55.706;37.656;2023-05-15T00:47:21;100773.16;;;9.65;54.41
43814;BME280;29669;55.706;37.656;2023-05-15T00:49:51;100769.31;;;9.59;54.43
43814;BME280;29669;55.706;37.656;2023-05-15T00:52:20;100762.63;;;9.57;54.53
43814;BME280;29669;55.706;37.656;2023-05-15T00:54:49;100758.66;;;9.52;54.76
43814;BME280;29669;55.706;37.656;2023-05-15T00:57:17;100770.53;;;9.55;54.94
43814;BME280;29669;55.706;37.656;2023-05-15T00:59:47;100762.31;;;9.50;54.76
43814;BME280;29669;55.706;37.656;2023-05-15T01:02:16;100768.84;;;9.44;54.80
43814;BME280;29669;55.706;37.656;2023-05-15T01:04:46;100772.78;;;9.39;54.91
43814;BME280;29669;55.706;37.656;2023-05-15T01:07:14;100762.97;;;9.33;55.30
43814;BME280;29669;55.706;37.656;2023-05-15T01:09:43;100761.84;;;9.35;55.30
43814;BME280;29669;55.706;37.656;2023-05-15T01:12:14;100767.72;;;9.37;55.12
43814;BME280;29669;55.706;37.656;2023-05-15T01:14:46;100773.59;;;9.39;55.37
43814;BME280;29669;55.706;37.656;2023-05-15T01:17:14;100772.66;;;9.40;55.40
43814;BME280;29669;55.706;37.656;2023-05-15T01:19:43;100774.03;;;9.44;55.23
43814;BME280;29669;55.706;37.656;2023-05-15T01:22:26;100774.31;;;9.41;55.33
43814;BME280;29669;55.706;37.656;2023-05-15T01:28:04;100767.88;;;9.36;55.11
43814;BME280;29669;55.706;37.656;2023-05-15T01:30:37;100766.22;;;9.35;55.56
43814;BME280;29669;55.706;37.656;2023-05-15T01:33:25;100765.84;;;9.39;55.48
43814;BME280;29669;55.706;37.656;2023-05-15T01:35:59;100764.91;;;9.40;55.44
43814;BME280;29669;55.706;37.656;2023-05-15T01:41:34;100768.28;;;9.41;55.58
43814;BME280;29669;55.706;37.656;2023-05-15T01:44:12;100763.94;;;9.41;55.64
43814;BME280;29669;55.706;37.656;2023-05-15T01:46:45;100769.66;;;9.45;55.50
43814;BME280;29669;55.706;37.656;2023-05-15T01:49:18;100767.78;;;9.47;55.50
43814;BME280;29669;55.706;37.656;2023-05-15T01:51:49;100767.38;;;9.52;55.59
43814;BME280;29669;55.706;37.656;2023-05-15T01:54:19;100774.38;;;9.61;55.46
43814;BME280;29669;55.706;37.656;2023-05-15T01:56:51;100774.53;;;9.69;55.08
43814;BME280;29669;55.706;37.656;2023-05-15T01:59:19;100765.66;;;9.71;55.39
43814;BME280;29669;55.706;37.656;2023-05-15T02:01:49;100784.66;;;9.81;55.36
43814;BME280;29669;55.706;37.656;2023-05-15T02:04:19;100786.03;;;9.85;55.18
43814;BME280;29669;55.706;37.656;2023-05-15T02:06:48;100778.78;;;9.89;55.23
43814;BME280;29669;55.706;37.656;2023-05-15T02:09:18;100787.94;;;9.93;54.98
43814;BME280;29669;55.706;37.656;2023-05-15T02:11:47;100785.50;;;9.91;54.85
43814;BME280;29669;55.706;37.656;2023-05-15T02:14:15;100787.94;;;9.93;54.73
43814;BME280;29669;55.706;37.656;2023-05-15T02:16:44;100790.25;;;9.96;54.96
43814;BME280;29669;55.706;37.656;2023-05-15T02:19:12;100791.22;;;9.95;54.97
43814;BME280;29669;55.706;37.656;2023-05-15T02:21:41;100789.19;;;9.98;55.03
43814;BME280;29669;55.706;37.656;2023-05-15T02:24:09;100791.38;;;10.03;55.05
43814;BME280;29669;55.706;37.656;2023-05-15T02:26:49;100787.31;;;10.10;55.00
43814;BME280;29669;55.706;37.656;2023-05-15T02:29:39;100787.31;;;10.10;54.96
43814;BME280;29669;55.706;37.656;2023-05-15T02:34:57;100795.28;;;10.27;54.85
43814;BME280;29669;55.706;37.656;2023-05-15T02:37:31;100788.44;;;10.36;54.88
43814;BME280;29669;55.706;37.656;2023-05-15T02:40:03;100794.72;;;10.43;54.64
43814;BME280;29669;55.706;37.656;2023-05-15T02:42:35;100792.53;;;10.48;54.44
43814;BME280;29669;55.706;37.656;2023-05-15T02:45:05;100786.91;;;10.53;54.43
43814;BME280;29669;55.706;37.656;2023-05-15T02:47:35;100786.50;;;10.57;54.40
43814;BME280;29669;55.706;37.656;2023-05-15T02:50:04;100788.72;;;10.62;54.25
43814;BME280;29669;55.706;37.656;2023-05-15T02:52:33;100793.47;;;10.66;54.01
43814;BME280;29669;55.706;37.656;2023-05-15T02:55:02;100792.91;;;10.72;54.22
43814;BME280;29669;55.706;37.656;2023-05-15T02:57:29;100794.16;;;10.78;54.15
43814;BME280;29669;55.706;37.656;2023-05-15T02:59:57;100803.69;;;10.87;53.97
43814;BME280;29669;55.706;37.656;2023-05-15T03:02:25;100797.94;;;10.93;53.77
43814;BME280;29669;55.706;37.656;2023-05-15T03:04:53;100795.88;;;10.96;53.67
43814;BME280;29669;55.706;37.656;2023-05-15T03:07:21;100789.59;;;10.99;53.51
43814;BME280;29669;55.706;37.656;2023-05-15T03:09:49;100802.41;;;11.10;53.47
43814;BME280;29669;55.706;37.656;2023-05-15T03:12:17;100797.75;;;11.13;53.48
43814;BME280;29669;55.706;37.656;2023-05-15T03:15:10;100814.81;;;11.25;53.54
43814;BME280;29669;55.706;37.656;2023-05-15T03:17:46;100816.03;;;11.31;53.30
43814;BME280;29669;55.706;37.656;2023-05-15T03:20:21;100813.41;;;11.41;53.26
43814;BME280;29669;55.706;37.656;2023-05-15T03:22:49;100805.97;;;11.46;53.56
43814;BME280;29669;55.706;37.656;2023-05-15T03:25:17;100814.72;;;11.54;52.95
43814;BME280;29669;55.706;37.656;2023-05-15T03:27:46;100815.25;;;11.58;52.78
43814;BME280;29669;55.706;37.656;2023-05-15T03:30:31;100816.44;;;11.63;52.66
43814;BME280;29669;55.706;37.656;2023-05-15T03:32:59;100814.69;;;11.64;52.84
43814;BME280;29669;55.706;37.656;2023-05-15T03:35:30;100819.03;;;11.73;52.60
43814;BME280;29669;55.706;37.656;2023-05-15T03:37:59;100828.72;;;11.80;52.50
43814;BME280;29669;55.706;37.656;2023-05-15T03:40:27;100825.00;;;11.83;52.39
43814;BME280;29669;55.706;37.656;2023-05-15T03:42:55;100819.88;;;11.91;52.30
43814;BME280;29669;55.706;37.656;2023-05-15T03:45:23;100832.00;;;12.00;52.39
43814;BME280;29669;55.706;37.656;2023-05-15T03:47:51;100827.22;;;12.05;51.96
43814;BME280;29669;55.706;37.656;2023-05-15T03:50:20;100831.53;;;12.14;52.00
43814;BME280;29669;55.706;37.656;2023-05-15T03:52:48;100823.41;;;12.17;52.04
43814;BME280;29669;55.706;37.656;2023-05-15T03:55:16;100825.97;;;12.26;51.97
43814;BME280;29669;55.706;37.656;2023-05-15T03:57:44;100823.59;;;12.33;51.67
43814;BME280;29669;55.706;37.656;2023-05-15T04:00:12;100823.81;;;12.40;51.74
43814;BME280;29669;55.706;37.656;2023-05-15T04:02:41;100819.16;;;12.43;51.69
43814;BME280;29669;55.706;37.656;2023-05-15T04:05:09;100826.88;;;12.53;51.51
43814;BME280;29669;55.706;37.656;2023-05-15T04:07:37;100827.91;;;12.60;51.16
43814;BME280;29669;55.706;37.656;2023-05-15T04:10:05;100815.41;;;12.63;51.19
43814;BME280;29669;55.706;37.656;2023-05-15T04:12:34;100824.09;;;12.72;51.23
43814;BME280;29669;55.706;37.656;2023-05-15T04:15:21;100825.81;;;12.81;50.91
43814;BME280;29669;55.706;37.656;2023-05-15T04:17:51;100819.84;;;12.88;50.67
43814;BME280;29669;55.706;37.656;2023-05-15T04:20:21;100819.25;;;12.94;50.62
43814;BME280;29669;55.706;37.656;2023-05-15T04:22:50;100820.13;;;13.03;50.33
43814;BME280;29669;55.706;37.656;2023-05-15T04:25:18;100820.47;;;13.08;50.00
43814;BME280;29669;55.706;37.656;2023-05-15T04:27:46;100814.66;;;13.14;50.05
43814;BME280;29669;55.706;37.656;2023-05-15T04:30:15;100813.53;;;13.16;49.58
43814;BME280;29669;55.706;37.656;2023-05-15T04:32:44;100824.97;;;13.23;49.69
43814;BME280;29669;55.706;37.656;2023-05-15T04:35:12;100811.66;;;13.27;49.46
43814;BME280;29669;55.706;37.656;2023-05-15T04:37:42;100819.50;;;13.35;49.35
43814;BME280;29669;55.706;37.656;2023-05-15T04:40:10;100820.81;;;13.39;49.11
43814;BME280;29669;55.706;37.656;2023-05-15T04:42:38;100822.16;;;13.43;49.10
43814;BME280;29669;55.706;37.656;2023-05-15T04:45:06;100824.97;;;13.49;49.07
43814;BME280;29669;55.706;37.656;2023-05-15T04:47:35;100823.38;;;13.56;48.73
43814;BME280;29669;55.706;37.656;2023-05-15T04:50:03;100820.28;;;13.61;48.49
43814;BME280;29669;55.706;37.656;2023-05-15T04:52:31;100822.91;;;13.69;48.45
43814;BME280;29669;55.706;37.656;2023-05-15T04:55:00;100824.41;;;13.71;48.45
43814;BME280;29669;55.706;37.656;2023-05-15T04:57:29;100827.84;;;13.80;48.22
43814;BME280;29669;55.706;37.656;2023-05-15T04:59:57;100828.06;;;13.86;48.21
43814;BME280;29669;55.706;37.656;2023-05-15T05:02:24;100824.47;;;13.95;48.03
43814;BME280;29669;55.706;37.656;2023-05-15T05:04:52;100828.44;;;14.07;47.79
43814;BME280;29669;55.706;37.656;2023-05-15T05:07:20;100827.66;;;14.15;47.62
43814;BME280;29669;55.706;37.656;2023-05-15T05:09:49;100820.13;;;14.20;47.25
43814;BME280;29669;55.706;37.656;2023-05-15T05:12:17;100817.59;;;14.28;47.15
43814;BME280;29669;55.706;37.656;2023-05-15T05:14:45;100825.56;;;14.35;46.81
43814;BME280;29669;55.706;37.656;2023-05-15T05:17:12;100817.09;;;14.41;46.80
43814;BME280;29669;55.706;37.656;2023-05-15T05:19:43;100820.84;;;14.46;46.49
43814;BME280;29669;55.706;37.656;2023-05-15T05:22:16;100809.75;;;14.52;46.23
43814;BME280;29669;55.706;37.656;2023-05-15T05:24:44;100812.22;;;14.54;46.13
43814;BME280;29669;55.706;37.656;2023-05-15T05:27:12;100822.19;;;14.66;46.00
43814;BME280;29669;55.706;37.656;2023-05-15T05:29:42;100811.41;;;14.69;45.83
43814;BME280;29669;55.706;37.656;2023-05-15T05:32:11;100810.75;;;14.75;45.72
43814;BME280;29669;55.706;37.656;2023-05-15T05:34:39;100803.22;;;14.80;45.38
43814;BME280;29669;55.706;37.656;2023-05-15T05:37:07;100807.78;;;14.86;45.22
43814;BME280;29669;55.706;37.656;2023-05-15T05:39:35;100808.75;;;14.93;45.05
43814;BME280;29669;55.706;37.656;2023-05-15T05:42:03;100809.88;;;14.99;44.88
43814;BME280;29669;55.706;37.656;2023-05-15T05:44:31;100809.06;;;15.06;44.87
43814;BME280;29669;55.706;37.656;2023-05-15T05:47:01;100805.63;;;15.14;44.70
43814;BME280;29669;55.706;37.656;2023-05-15T05:49:29;100803.66;;;15.16;44.55
43814;BME280;29669;55.706;37.656;2023-05-15T05:52:05;100805.78;;;15.21;44.51
43814;BME280;29669;55.706;37.656;2023-05-15T05:54:35;100798.72;;;15.29;44.47
43814;BME280;29669;55.706;37.656;2023-05-15T05:57:04;100799.88;;;15.35;44.30
43814;BME280;29669;55.706;37.656;2023-05-15T05:59:44;100800.47;;;15.37;44.03
43814;BME280;29669;55.706;37.656;2023-05-15T06:02:16;100801.16;;;15.47;43.98
43814;BME280;29669;55.706;37.656;2023-05-15T06:04:45;100794.88;;;15.56;43.82
43814;BME280;29669;55.706;37.656;2023-05-15T06:07:16;100802.72;;;15.64;43.79
43814;BME280;29669;55.706;37.656;2023-05-15T06:09:46;100801.88;;;15.71;43.52
43814;BME280;29669;55.706;37.656;2023-05-15T06:12:16;100796.25;;;15.82;43.27
43814;BME280;29669;55.706;37.656;2023-05-15T06:14:44;100794.91;;;15.86;43.06
43814;BME280;29669;55.706;37.656;2023-05-15T06:17:12;100803.38;;;15.96;42.98
43814;BME280;29669;55.706;37.656;2023-05-15T06:19:42;100792.16;;;16.11;42.80
43814;BME280;29669;55.706;37.656;2023-05-15T06:22:11;100788.28;;;16.29;42.47
43814;BME280;29669;55.706;37.656;2023-05-15T06:24:39;100788.06;;;16.39;42.41
43814;BME280;29669;55.706;37.656;2023-05-15T06:27:09;100784.41;;;16.48;42.00
43814;BME280;29669;55.706;37.656;2023-05-15T06:29:38;100785.72;;;16.66;41.85
43814;BME280;29669;55.706;37.656;2023-05-15T06:32:09;100788.28;;;17.04;41.66
43814;BME280;29669;55.706;37.656;2023-05-15T06:34:38;100787.22;;;17.42;40.94
43814;BME280;29669;55.706;37.656;2023-05-15T06:37:07;100788.66;;;17.88;40.38
43814;BME280;29669;55.706;37.656;2023-05-15T06:39:35;100783.91;;;18.19;39.67
43814;BME280;29669;55.706;37.656;2023-05-15T06:42:03;100784.66;;;18.34;39.17
43814;BME280;29669;55.706;37.656;2023-05-15T06:44:34;100786.44;;;18.48;38.89
43814;BME280;29669;55.706;37.656;2023-05-15T06:47:02;100786.03;;;18.72;38.65
43814;BME280;29669;55.706;37.656;2023-05-15T06:49:30;100784.84;;;19.03;38.06
43814;BME280;29669;55.706;37.656;2023-05-15T06:51:58;100782.53;;;19.21;37.75
43814;BME280;29669;55.706;37.656;2023-05-15T06:54:29;100779.09;;;19.27;37.39
43814;BME280;29669;55.706;37.656;2023-05-15T06:56:58;100782.63;;;19.34;36.97
43814;BME280;29669;55.706;37.656;2023-05-15T06:59:29;100772.97;;;19.13;36.86
43814;BME280;29669;55.706;37.656;2023-05-15T07:02:02;100778.22;;;18.79;37.17
43814;BME280;29669;55.706;37.656;2023-05-15T07:04:31;100784.56;;;18.42;37.41
43814;BME280;29669;55.706;37.656;2023-05-15T07:07:00;100782.31;;;18.39;37.84
43814;BME280;29669;55.706;37.656;2023-05-15T07:09:34;100785.31;;;18.57;37.77
43814;BME280;29669;55.706;37.656;2023-05-15T07:12:06;100788.56;;;18.59;37.79
43814;BME280;29669;55.706;37.656;2023-05-15T07:14:35;100786.16;;;18.64;37.55
43814;BME280;29669;55.706;37.656;2023-05-15T07:17:10;100784.25;;;18.79;37.28
43814;BME280;29669;55.706;37.656;2023-05-15T07:19:41;100790.25;;;18.95;36.95
43814;BME280;29669;55.706;37.656;2023-05-15T07:22:09;100778.59;;;19.04;36.92
43814;BME280;29669;55.706;37.656;2023-05-15T07:24:37;100771.22;;;19.27;36.67
43814;BME280;29669;55.706;37.656;2023-05-15T07:27:07;100777.66;;;19.52;36.26
43814;BME280;29669;55.706;37.656;2023-05-15T07:29:35;100775.47;;;19.62;35.96
43814;BME280;29669;55.706;37.656;2023-05-15T07:32:03;100776.25;;;19.56;35.71
43814;BME280;29669;55.706;37.656;2023-05-15T07:34:31;100765.50;;;19.51;35.49
43814;BME280;29669;55.706;37.656;2023-05-15T07:36:59;100762.88;;;19.51;35.44
43814;BME280;29669;55.706;37.656;2023-05-15T07:39:27;100765.66;;;19.43;35.37
43814;BME280;29669;55.706;37.656;2023-05-15T07:41:55;100763.72;;;19.24;35.58
43814;BME280;29669;55.706;37.656;2023-05-15T07:44:23;100768.34;;;19.22;35.63
43814;BME280;29669;55.706;37.656;2023-05-15T07:46:51;100759.84;;;19.20;35.51
43814;BME280;29669;55.706;37.656;2023-05-15T07:49:19;100757.06;;;19.28;35.45
43814;BME280;29669;55.706;37.656;2023-05-15T07:51:47;100754.41;;;19.28;35.22
43814;BME280;29669;55.706;37.656;2023-05-15T07:54:15;100755.03;;;19.30;35.07
43814;BME280;29669;55.706;37.656;2023-05-15T07:56:43;100758.88;;;19.27;34.78
43814;BME280;29669;55.706;37.656;2023-05-15T07:59:11;100751.38;;;19.24;34.75
43814;BME280;29669;55.706;37.656;2023-05-15T08:01:39;100757.06;;;19.28;34.73
43814;BME280;29669;55.706;37.656;2023-05-15T08:04:08;100747.50;;;19.20;34.45
43814;BME280;29669;55.706;37.656;2023-05-15T08:06:36;100745.03;;;19.12;34.80
43814;BME280;29669;55.706;37.656;2023-05-15T08:09:10;100743.91;;;18.94;35.01
43814;BME280;29669;55.706;37.656;2023-05-15T08:11:39;100740.44;;;18.93;35.04
43814;BME280;29669;55.706;37.656;2023-05-15T08:14:07;100739.47;;;18.94;34.73
43814;BME280;29669;55.706;37.656;2023-05-15T08:16:40;100748.75;;;18.97;34.75
43814;BME280;29669;55.706;37.656;2023-05-15T08:19:08;100735.00;;;18.95;34.86
43814;BME280;29669;55.706;37.656;2023-05-15T08:21:36;100737.88;;;19.00;34.39
43814;BME280;29669;55.706;37.656;2023-05-15T08:24:05;100744.81;;;19.14;34.46
43814;BME280;29669;55.706;37.656;2023-05-15T08:26:33;100740.25;;;19.29;34.11
43814;BME280;29669;55.706;37.656;2023-05-15T08:29:01;100729.16;;;19.33;34.06
43814;BME280;29669;55.706;37.656;2023-05-15T08:31:32;100734.28;;;19.48;33.67
43814;BME280;29669;55.706;37.656;2023-05-15T08:34:00;100727.59;;;19.45;33.41
43814;BME280;29669;55.706;37.656;2023-05-15T08:36:29;100730.81;;;19.47;33.71
43814;BME280;29669;55.706;37.656;2023-05-15T08:38:57;100726.00;;;19.57;33.49
43814;BME280;29669;55.706;37.656;2023-05-15T08:41:31;100725.81;;;19.59;33.38
43814;BME280;29669;55.706;37.656;2023-05-15T08:44:08;100717.13;;;19.65;33.46
43814;BME280;29669;55.706;37.656;2023-05-15T08:46:37;100725.59;;;19.54;33.28
43814;BME280;29669;55.706;37.656;2023-05-15T08:49:31;100728.81;;;19.49;33.46
43814;BME280;29669;55.706;37.656;2023-05-15T08:52:00;100722.38;;;19.58;33.53
43814;BME280;29669;55.706;37.656;2023-05-15T08:54:28;100728.84;;;19.56;33.30
43814;BME280;29669;55.706;37.656;2023-05-15T08:56:56;100720.13;;;19.55;33.07
43814;BME280;29669;55.706;37.656;2023-05-15T08:59:25;100717.50;;;19.49;33.11
43814;BME280;29669;55.706;37.656;2023-05-15T09:01:53;100720.50;;;19.46;33.16
43814;BME280;29669;55.706;37.656;2023-05-15T09:04:23;100708.56;;;19.50;32.96
43814;BME280;29669;55.706;37.656;2023-05-15T09:06:52;100708.78;;;19.55;32.89
43814;BME280;29669;55.706;37.656;2023-05-15T09:09:22;100699.88;;;19.56;32.85
43814;BME280;29669;55.706;37.656;2023-05-15T09:11:51;100695.22;;;19.58;32.74
43814;BME280;29669;55.706;37.656;2023-05-15T09:14:20;100698.06;;;19.56;32.64
43814;BME280;29669;55.706;37.656;2023-05-15T09:16:49;100701.69;;;19.55;32.70
43814;BME280;29669;55.706;37.656;2023-05-15T09:19:20;100695.81;;;19.53;32.63
43814;BME280;29669;55.706;37.656;2023-05-15T09:21:49;100689.53;;;19.54;32.38
43814;BME280;29669;55.706;37.656;2023-05-15T09:24:18;100692.38;;;19.53;32.27
43814;BME280;29669;55.706;37.656;2023-05-15T09:26:58;100684.03;;;19.49;32.28
43814;BME280;29669;55.706;37.656;2023-05-15T09:29:30;100668.25;;;19.43;32.26
43814;BME280;29669;55.706;37.656;2023-05-15T09:32:05;100671.28;;;19.46;32.42
43814;BME280;29669;55.706;37.656;2023-05-15T09:34:39;100670.69;;;19.51;32.12
43814;BME280;29669;55.706;37.656;2023-05-15T09:37:26;100664.41;;;19.52;32.27
43814;BME280;29669;55.706;37.656;2023-05-15T09:39:54;100674.16;;;19.58;32.25
43814;BME280;29669;55.706;37.656;2023-05-15T09:42:23;100671.91;;;19.55;31.97
43814;BME280;29669;55.706;37.656;2023-05-15T09:44:51;100679.81;;;19.55;32.08
43814;BME280;29669;55.706;37.656;2023-05-15T09:47:19;100675.56;;;19.54;32.13
43814;BME280;29669;55.706;37.656;2023-05-15T09:49:48;100675.34;;;19.55;32.18
43814;BME280;29669;55.706;37.656;2023-05-15T09:52:16;100671.13;;;19.54;32.06
43814;BME280;29669;55.706;37.656;2023-05-15T09:54:44;100657.13;;;19.54;31.98
43814;BME280;29669;55.706;37.656;2023-05-15T09:57:20;100666.06;;;19.59;32.02
43814;BME280;29669;55.706;37.656;2023-05-15T09:59:49;100638.91;;;19.59;31.83
43814;BME280;29669;55.706;37.656;2023-05-15T10:02:26;100656.34;;;19.66;31.65
43814;BME280;29669;55.706;37.656;2023-05-15T10:04:59;100664.44;;;19.65;31.70
43814;BME280;29669;55.706;37.656;2023-05-15T10:07:35;100653.91;;;19.65;31.69
43814;BME280;29669;55.706;37.656;2023-05-15T10:10:04;100647.84;;;19.71;31.66
43814;BME280;29669;55.706;37.656;2023-05-15T10:12:33;100650.25;;;19.73;31.45
43814;BME280;29669;55.706;37.656;2023-05-15T10:15:03;100653.09;;;19.71;31.40
43814;BME280;29669;55.706;37.656;2023-05-15T10:17:33;100640.97;;;19.70;31.29
43814;BME280;29669;55.706;37.656;2023-05-15T10:20:06;100634.88;;;19.69;31.14
43814;BME280;29669;55.706;37.656;2023-05-15T10:22:37;100639.97;;;19.78;31.15
43814;BME280;29669;55.706;37.656;2023-05-15T10:27:45;100637.31;;;19.97;30.58
43814;BME280;29669;55.706;37.656;2023-05-15T10:30:14;100637.53;;;20.02;30.45
43814;BME280;29669;55.706;37.656;2023-05-15T10:32:44;100633.47;;;20.13;30.41
43814;BME280;29669;55.706;37.656;2023-05-15T10:35:12;100635.72;;;20.35;30.15
43814;BME280;29669;55.706;37.656;2023-05-15T10:37:40;100633.25;;;20.53;29.85
43814;BME280;29669;55.706;37.656;2023-05-15T10:40:09;100631.59;;;20.66;29.49
43814;BME280;29669;55.706;37.656;2023-05-15T10:42:40;100627.50;;;20.76;29.56
43814;BME280;29669;55.706;37.656;2023-05-15T10:45:09;100628.69;;;20.87;29.14
43814;BME280;29669;55.706;37.656;2023-05-15T10:47:38;100620.34;;;20.90;29.07
43814;BME280;29669;55.706;37.656;2023-05-15T10:50:07;100617.31;;;20.93;29.07
43814;BME280;29669;55.706;37.656;2023-05-15T10:52:36;100620.53;;;21.01;28.96
43814;BME280;29669;55.706;37.656;2023-05-15T10:55:07;100627.41;;;21.09;28.76
43814;BME280;29669;55.706;37.656;2023-05-15T10:57:35;100626.56;;;21.21;28.64
43814;BME280;29669;55.706;37.656;2023-05-15T11:00:26;100622.25;;;21.27;28.65
43814;BME280;29669;55.706;37.656;2023-05-15T11:02:56;100618.03;;;21.19;28.36
43814;BME280;29669;55.706;37.656;2023-05-15T11:05:25;100613.59;;;21.07;28.44
43814;BME280;29669;55.706;37.656;2023-05-15T11:10:46;100611.00;;;20.94;28.38
43814;BME280;29669;55.706;37.656;2023-05-15T11:13:14;100606.38;;;20.89;28.51
43814;BME280;29669;55.706;37.656;2023-05-15T11:15:46;100609.59;;;20.91;28.30
43814;BME280;29669;55.706;37.656;2023-05-15T11:18:15;100599.06;;;20.91;28.49
43814;BME280;29669;55.706;37.656;2023-05-15T11:23:21;100597.84;;;20.81;28.63
43814;BME280;29669;55.706;37.656;2023-05-15T11:25:54;100598.63;;;20.94;28.38
43814;BME280;29669;55.706;37.656;2023-05-15T11:28:24;100604.09;;;21.06;28.20
43814;BME280;29669;55.706;37.656;2023-05-15T11:30:58;100593.69;;;21.11;27.76
43814;BME280;29669;55.706;37.656;2023-05-15T11:33:28;100593.84;;;21.16;27.70
43814;BME280;29669;55.706;37.656;2023-05-15T11:35:59;100586.97;;;21.15;27.36
43814;BME280;29669;55.706;37.656;2023-05-15T11:38:37;100592.63;;;21.25;27.43
43814;BME280;29669;55.706;37.656;2023-05-15T11:41:17;100595.19;;;21.31;27.37
43814;BME280;29669;55.706;37.656;2023-05-15T11:43:49;100594.94;;;21.46;27.21
43814;BME280;29669;55.706;37.656;2023-05-15T11:46:19;100576.81;;;21.49;26.87
43814;BME280;29669;55.706;37.656;2023-05-15T11:48:49;100584.75;;;21.49;26.78
43814;BME280;29669;55.706;37.656;2023-05-15T11:51:22;100583.47;;;21.52;26.68
43814;BME280;29669;55.706;37.656;2023-05-15T11:53:53;100582.63;;;21.58;26.82
43814;BME280;29669;55.706;37.656;2023-05-15T11:56:25;100576.72;;;21.63;26.87
43814;BME280;29669;55.706;37.656;2023-05-15T11:58:58;100577.47;;;21.70;26.68
43814;BME280;29669;55.706;37.656;2023-05-15T12:01:26;100578.03;;;21.78;26.88
43814;BME280;29669;55.706;37.656;2023-05-15T12:03:56;100568.81;;;21.87;26.60
43814;BME280;29669;55.706;37.656;2023-05-15T12:06:25;100568.38;;;21.90;26.56
43814;BME280;29669;55.706;37.656;2023-05-15T12:08:52;100569.56;;;21.94;26.78
43814;BME280;29669;55.706;37.656;2023-05-15T12:11:21;100569.06;;;22.04;26.72
43814;BME280;29669;55.706;37.656;2023-05-15T12:13:51;100568.22;;;22.10;26.32
43814;BME280;29669;55.706;37.656;2023-05-15T12:16:25;100558.88;;;22.07;26.46
43814;BME280;29669;55.706;37.656;2023-05-15T12:18:54;100556.81;;;22.09;26.43
43814;BME280;29669;55.706;37.656;2023-05-15T12:21:25;100555.22;;;22.08;26.29
43814;BME280;29669;55.706;37.656;2023-05-15T12:23:53;100552.72;;;22.13;26.17
43814;BME280;29669;55.706;37.656;2023-05-15T12:26:34;100559.50;;;22.27;25.93
43814;BME280;29669;55.706;37.656;2023-05-15T12:29:03;100544.06;;;22.42;25.99
43814;BME280;29669;55.706;37.656;2023-05-15T12:31:35;100555.38;;;22.68;25.49
43814;BME280;29669;55.706;37.656;2023-05-15T12:34:03;100539.56;;;23.09;25.22
43814;BME280;29669;55.706;37.656;2023-05-15T12:36:31;100541.63;;;24.12;24.24
43814;BME280;29669;55.706;37.656;2023-05-15T12:39:06;100539.66;;;26.10;22.25
43814;BME280;29669;55.706;37.656;2023-05-15T12:41:36;100527.16;;;27.92;20.17
43814;BME280;29669;55.706;37.656;2023-05-15T12:44:05;100526.63;;;29.54;19.02
43814;BME280;29669;55.706;37.656;2023-05-15T12:46:38;100519.03;;;30.80;18.05
43814;BME280;29669;55.706;37.656;2023-05-15T12:49:08;100527.03;;;31.63;17.25
43814;BME280;29669;55.706;37.656;2023-05-15T12:51:47;100515.84;;;32.08;16.76
43814;BME280;29669;55.706;37.656;2023-05-15T12:54:17;100508.53;;;32.74;16.34
43814;BME280;29669;55.706;37.656;2023-05-15T12:56:48;100519.03;;;33.13;15.95
43814;BME280;29669;55.706;37.656;2023-05-15T12:59:17;100503.97;;;32.93;15.79
43814;BME280;29669;55.706;37.656;2023-05-15T13:01:45;100508.41;;;33.03;15.83
43814;BME280;29669;55.706;37.656;2023-05-15T13:04:15;100503.63;;;32.81;15.92
43814;BME280;29669;55.706;37.656;2023-05-15T13:06:43;100504.06;;;33.07;15.86
43814;BME280;29669;55.706;37.656;2023-05-15T13:09:20;100491.88;;;33.74;15.39
43814;BME280;29669;55.706;37.656;2023-05-15T13:11:48;100499.22;;;34.14;15.04
43814;BME280;29669;55.706;37.656;2023-05-15T13:14:17;100505.44;;;34.64;14.73